Aeroporto :
LOGIN :

Iscrizione | Disclaimer

   EN    FR    IT 

 










Sommario :    VFR   VFR Marginale   IFR   IFR Intensivo   IFR Molto Intensivo
Visibilità : 
Base nubi : 
>= 8 km
>= 3000ft
5 / 8 km
1000 / 3000 ft
1500m / 5 km
500 / 1000 ft
800 / 1500m
200 / 500 ft
< 800m
< 200 ft
Simboli :   Temporali  Nebbia  Neve Forte  Precipitazioni Forti  Vento > 20 kt
SIGMETs :   Varie  Temporali  Ghiacco  Turbolenza  Onda orograficha  Ceneri Vulcaniche







- Altitudine del aeroporto : 200 ft


EBBL - Klein Brogel AB

ULTIMO METAR :
  • 221225Z 23007KT 9999 FEW050 25/10 Q1025 BLU BLU

METARs OBSOLETI :
  • 221155Z 23007KT 9999 FEW050 24/11 Q1026 BLU BLU
  • 221125Z 20007KT 9999 FEW050 24/11 Q1026 BLU BLU
  • 221055Z 21006KT 9999 FEW050 24/11 Q1026 BLU BLU
  • 221025Z 22006KT 9999 FEW050 23/11 Q1026 BLU BLU

TAF TAF EBBL
Valido dal 22 a 13 ore il 22 a 22 ore UTC


221141Z 2213/2222 24004KT 9999 FEW050
BECMG 2215/2217 30004G14KT SKC
Nessun NOTAM noto per questo aeroporto.



MetMap, La meteo Aeronautica in un colpo d'occhio ! - Copyright ORBIFLY Dicembre 2007 - Disclaimer

ORBIFLY MET'MAP TEAM :

Programmazione e sviluppo : Alexandra Zaïnal
Concezione e sviluppo : Baudouin d'Aumeries
Co-Programmazione e sviluppo : Marc-Olivier Méhu
Supporto tecnico e logistico : Manuel Goepfert
Aiuto per la traduzione : Arnaldo La Scala

Contatto : metmap@orbifly.com




FONTI E CREDITI :

   NOAA